sensor_id;sensor_type;location;lat;lon;timestamp;pressure;altitude;pressure_sealevel;temperature;humidity
20889;BME280;10604;51.976;7.594;2023-02-28T00:00:30;102359.53;;;-0.92;86.86
20889;BME280;10604;51.976;7.594;2023-02-28T00:02:56;102366.72;;;-0.85;86.67
20889;BME280;10604;51.976;7.594;2023-02-28T00:05:24;102364.16;;;-0.85;86.27
20889;BME280;10604;51.976;7.594;2023-02-28T00:07:50;102360.31;;;-0.74;86.42
20889;BME280;10604;51.976;7.594;2023-02-28T00:10:21;102371.31;;;-0.80;86.58
20889;BME280;10604;51.976;7.594;2023-02-28T00:12:48;102362.75;;;-0.77;86.10
20889;BME280;10604;51.976;7.594;2023-02-28T00:15:15;102367.03;;;-0.79;86.51
20889;BME280;10604;51.976;7.594;2023-02-28T00:17:41;102373.75;;;-0.83;86.30
20889;BME280;10604;51.976;7.594;2023-02-28T00:20:07;102368.13;;;-0.93;87.06
20889;BME280;10604;51.976;7.594;2023-02-28T00:22:34;102364.44;;;-0.98;87.21
20889;BME280;10604;51.976;7.594;2023-02-28T00:24:59;102362.81;;;-0.96;87.23
20889;BME280;10604;51.976;7.594;2023-02-28T00:27:24;102363.06;;;-0.90;86.73
20889;BME280;10604;51.976;7.594;2023-02-28T00:29:50;102368.41;;;-0.87;86.54
20889;BME280;10604;51.976;7.594;2023-02-28T00:32:15;102363.31;;;-0.84;86.54
20889;BME280;10604;51.976;7.594;2023-02-28T00:34:40;102373.31;;;-0.93;86.35
20889;BME280;10604;51.976;7.594;2023-02-28T00:37:07;102362.56;;;-1.02;86.48
20889;BME280;10604;51.976;7.594;2023-02-28T00:39:35;102365.81;;;-1.06;86.31
20889;BME280;10604;51.976;7.594;2023-02-28T00:42:02;102360.53;;;-1.09;86.52
20889;BME280;10604;51.976;7.594;2023-02-28T00:44:28;102361.19;;;-1.13;86.48
20889;BME280;10604;51.976;7.594;2023-02-28T00:46:54;102362.16;;;-1.11;86.75
20889;BME280;10604;51.976;7.594;2023-02-28T00:49:20;102366.91;;;-1.21;86.23
20889;BME280;10604;51.976;7.594;2023-02-28T00:51:46;102364.66;;;-1.13;86.83
20889;BME280;10604;51.976;7.594;2023-02-28T00:54:12;102360.00;;;-1.22;87.01
20889;BME280;10604;51.976;7.594;2023-02-28T00:56:37;102366.91;;;-1.21;87.36
20889;BME280;10604;51.976;7.594;2023-02-28T00:59:03;102355.91;;;-1.36;87.54
20889;BME280;10604;51.976;7.594;2023-02-28T01:01:28;102358.91;;;-1.46;87.52
20889;BME280;10604;51.976;7.594;2023-02-28T01:03:53;102357.94;;;-1.48;87.84
20889;BME280;10604;51.976;7.594;2023-02-28T01:06:19;102352.84;;;-1.46;87.47
20889;BME280;10604;51.976;7.594;2023-02-28T01:08:44;102364.06;;;-1.46;87.86
20889;BME280;10604;51.976;7.594;2023-02-28T01:11:11;102357.00;;;-1.50;87.66
20889;BME280;10604;51.976;7.594;2023-02-28T01:13:37;102354.97;;;-1.57;87.85
20889;BME280;10604;51.976;7.594;2023-02-28T01:16:02;102359.03;;;-1.43;87.72
20889;BME280;10604;51.976;7.594;2023-02-28T01:18:28;102363.81;;;-1.52;87.69
20889;BME280;10604;51.976;7.594;2023-02-28T01:20:54;102353.19;;;-1.58;87.54
20889;BME280;10604;51.976;7.594;2023-02-28T01:23:21;102348.41;;;-1.49;87.50
20889;BME280;10604;51.976;7.594;2023-02-28T01:25:49;102350.53;;;-1.60;87.30
20889;BME280;10604;51.976;7.594;2023-02-28T01:28:14;102345.53;;;-1.55;87.31
20889;BME280;10604;51.976;7.594;2023-02-28T01:30:40;102344.63;;;-1.57;87.37
20889;BME280;10604;51.976;7.594;2023-02-28T01:33:05;102341.59;;;-1.47;87.26
20889;BME280;10604;51.976;7.594;2023-02-28T01:35:35;102341.47;;;-1.50;87.27
20889;BME280;10604;51.976;7.594;2023-02-28T01:38:01;102346.94;;;-1.44;87.20
20889;BME280;10604;51.976;7.594;2023-02-28T01:40:27;102337.78;;;-1.55;86.48
20889;BME280;10604;51.976;7.594;2023-02-28T01:42:52;102334.38;;;-1.54;86.93
20889;BME280;10604;51.976;7.594;2023-02-28T01:47:52;102332.50;;;-1.58;86.68
20889;BME280;10604;51.976;7.594;2023-02-28T01:50:22;102335.63;;;-1.65;87.19
20889;BME280;10604;51.976;7.594;2023-02-28T01:52:49;102328.53;;;-1.69;87.77
20889;BME280;10604;51.976;7.594;2023-02-28T01:55:18;102339.47;;;-1.75;88.28
20889;BME280;10604;51.976;7.594;2023-02-28T01:57:49;102336.34;;;-1.68;88.64
20889;BME280;10604;51.976;7.594;2023-02-28T02:00:19;102344.31;;;-1.63;87.60
20889;BME280;10604;51.976;7.594;2023-02-28T02:02:49;102335.63;;;-1.65;87.88
20889;BME280;10604;51.976;7.594;2023-02-28T02:05:18;102342.25;;;-1.70;87.65
20889;BME280;10604;51.976;7.594;2023-02-28T02:07:46;102336.81;;;-1.76;87.97
20889;BME280;10604;51.976;7.594;2023-02-28T02:15:20;102332.53;;;-1.76;87.60
20889;BME280;10604;51.976;7.594;2023-02-28T02:17:52;102335.94;;;-1.77;88.32
20889;BME280;10604;51.976;7.594;2023-02-28T02:23:32;102335.00;;;-1.79;88.42
20889;BME280;10604;51.976;7.594;2023-02-28T02:26:44;102329.88;;;-1.77;88.06
20889;BME280;10604;51.976;7.594;2023-02-28T02:37:50;102334.75;;;-1.83;87.42
20889;BME280;10604;51.976;7.594;2023-02-28T02:40:23;102340.69;;;-1.86;88.05
20889;BME280;10604;51.976;7.594;2023-02-28T02:43:16;102329.31;;;-1.89;88.41
20889;BME280;10604;51.976;7.594;2023-02-28T02:45:51;102327.41;;;-1.93;88.35
20889;BME280;10604;51.976;7.594;2023-02-28T02:48:20;102337.03;;;-2.09;88.29
20889;BME280;10604;51.976;7.594;2023-02-28T02:50:51;102331.16;;;-2.06;89.05
20889;BME280;10604;51.976;7.594;2023-02-28T02:53:21;102342.34;;;-2.06;88.51
20889;BME280;10604;51.976;7.594;2023-02-28T02:55:50;102335.56;;;-2.04;88.27
20889;BME280;10604;51.976;7.594;2023-02-28T02:58:23;102339.38;;;-1.95;88.36
20889;BME280;10604;51.976;7.594;2023-02-28T03:00:56;102337.47;;;-2.00;88.33
20889;BME280;10604;51.976;7.594;2023-02-28T03:03:23;102339.38;;;-1.95;88.04
20889;BME280;10604;51.976;7.594;2023-02-28T03:05:55;102331.28;;;-2.03;87.48
20889;BME280;10604;51.976;7.594;2023-02-28T03:08:22;102341.75;;;-2.18;88.16
20889;BME280;10604;51.976;7.594;2023-02-28T03:10:52;102346.81;;;-2.21;88.64
20889;BME280;10604;51.976;7.594;2023-02-28T03:13:36;102340.28;;;-2.13;88.46
20889;BME280;10604;51.976;7.594;2023-02-28T03:16:17;102341.13;;;-2.14;88.26
20889;BME280;10604;51.976;7.594;2023-02-28T03:24:57;102343.53;;;-2.17;88.71
20889;BME280;10604;51.976;7.594;2023-02-28T03:27:24;102343.38;;;-2.20;88.89
20889;BME280;10604;51.976;7.594;2023-02-28T03:30:05;102344.88;;;-2.25;89.17
20889;BME280;10604;51.976;7.594;2023-02-28T03:32:38;102343.69;;;-2.14;89.29
20889;BME280;10604;51.976;7.594;2023-02-28T03:35:16;102344.88;;;-2.07;88.57
20889;BME280;10604;51.976;7.594;2023-02-28T03:37:48;102341.63;;;-2.21;88.09
20889;BME280;10604;51.976;7.594;2023-02-28T03:40:22;102336.59;;;-2.18;88.40
20889;BME280;10604;51.976;7.594;2023-02-28T03:42:51;102349.22;;;-2.24;88.38
20889;BME280;10604;51.976;7.594;2023-02-28T03:45:23;102351.97;;;-2.39;89.02
20889;BME280;10604;51.976;7.594;2023-02-28T03:48:09;102346.50;;;-2.27;89.27
20889;BME280;10604;51.976;7.594;2023-02-28T03:50:41;102342.81;;;-2.32;88.07
20889;BME280;10604;51.976;7.594;2023-02-28T03:53:20;102358.31;;;-2.32;88.76
20889;BME280;10604;51.976;7.594;2023-02-28T03:55:54;102359.63;;;-2.40;88.24
20889;BME280;10604;51.976;7.594;2023-02-28T03:59:12;102349.47;;;-2.37;88.36
20889;BME280;10604;51.976;7.594;2023-02-28T04:01:40;102350.94;;;-2.42;88.89
20889;BME280;10604;51.976;7.594;2023-02-28T04:04:11;102357.84;;;-2.41;89.03
20889;BME280;10604;51.976;7.594;2023-02-28T04:06:37;102356.91;;;-2.43;89.14
20889;BME280;10604;51.976;7.594;2023-02-28T04:09:04;102356.25;;;-2.39;88.38
20889;BME280;10604;51.976;7.594;2023-02-28T04:11:38;102355.06;;;-2.46;88.67
20889;BME280;10604;51.976;7.594;2023-02-28T04:14:06;102355.66;;;-2.51;88.56
20889;BME280;10604;51.976;7.594;2023-02-28T04:16:33;102349.00;;;-2.46;89.02
20889;BME280;10604;51.976;7.594;2023-02-28T04:19:00;102353.56;;;-2.41;89.00
20889;BME280;10604;51.976;7.594;2023-02-28T04:21:30;102360.38;;;-2.43;88.54
20889;BME280;10604;51.976;7.594;2023-02-28T04:23:55;102352.41;;;-2.47;88.45
20889;BME280;10604;51.976;7.594;2023-02-28T04:26:28;102355.94;;;-2.45;89.29
20889;BME280;10604;51.976;7.594;2023-02-28T04:28:55;102355.50;;;-2.54;89.19
20889;BME280;10604;51.976;7.594;2023-02-28T04:31:20;102358.88;;;-2.55;89.12
20889;BME280;10604;51.976;7.594;2023-02-28T04:33:45;102354.72;;;-2.69;89.13
20889;BME280;10604;51.976;7.594;2023-02-28T04:36:11;102357.13;;;-2.56;89.72
20889;BME280;10604;51.976;7.594;2023-02-28T04:38:38;102356.47;;;-2.52;89.04
20889;BME280;10604;51.976;7.594;2023-02-28T04:41:04;102356.81;;;-2.62;88.84
20889;BME280;10604;51.976;7.594;2023-02-28T04:43:31;102356.00;;;-2.61;88.68
20889;BME280;10604;51.976;7.594;2023-02-28T04:45:58;102353.41;;;-2.61;88.96
20889;BME280;10604;51.976;7.594;2023-02-28T04:48:28;102362.28;;;-2.56;88.84
20889;BME280;10604;51.976;7.594;2023-02-28T04:50:54;102360.53;;;-2.57;89.44
20889;BME280;10604;51.976;7.594;2023-02-28T04:53:20;102360.34;;;-2.60;89.23
20889;BME280;10604;51.976;7.594;2023-02-28T04:55:45;102353.59;;;-2.58;88.83
20889;BME280;10604;51.976;7.594;2023-02-28T04:58:12;102348.13;;;-2.64;88.71
20889;BME280;10604;51.976;7.594;2023-02-28T05:00:37;102354.28;;;-2.79;89.82
20889;BME280;10604;51.976;7.594;2023-02-28T05:03:03;102357.91;;;-2.75;89.59
20889;BME280;10604;51.976;7.594;2023-02-28T05:05:28;102353.25;;;-2.82;89.19
20889;BME280;10604;51.976;7.594;2023-02-28T05:07:53;102368.63;;;-2.84;89.36
20889;BME280;10604;51.976;7.594;2023-02-28T05:10:21;102365.63;;;-2.75;89.34
20889;BME280;10604;51.976;7.594;2023-02-28T05:12:46;102370.66;;;-2.78;89.20
20889;BME280;10604;51.976;7.594;2023-02-28T05:15:14;102359.47;;;-2.79;89.17
20889;BME280;10604;51.976;7.594;2023-02-28T05:17:40;102363.47;;;-2.84;89.38
20889;BME280;10604;51.976;7.594;2023-02-28T05:20:06;102370.91;;;-2.90;89.18
20889;BME280;10604;51.976;7.594;2023-02-28T05:22:32;102369.59;;;-2.82;89.28
20889;BME280;10604;51.976;7.594;2023-02-28T05:24:57;102372.34;;;-2.79;89.03
20889;BME280;10604;51.976;7.594;2023-02-28T05:27:23;102364.31;;;-2.85;88.76
20889;BME280;10604;51.976;7.594;2023-02-28T05:29:48;102369.00;;;-2.94;88.65
20889;BME280;10604;51.976;7.594;2023-02-28T05:32:14;102369.00;;;-2.94;89.25
20889;BME280;10604;51.976;7.594;2023-02-28T05:34:40;102372.78;;;-3.03;89.29
20889;BME280;10604;51.976;7.594;2023-02-28T05:37:06;102369.81;;;-3.11;89.61
20889;BME280;10604;51.976;7.594;2023-02-28T05:39:32;102376.19;;;-3.04;90.21
20889;BME280;10604;51.976;7.594;2023-02-28T05:41:57;102377.38;;;-2.98;90.33
20889;BME280;10604;51.976;7.594;2023-02-28T05:44:23;102377.06;;;-2.88;89.67
20889;BME280;10604;51.976;7.594;2023-02-28T05:46:48;102376.25;;;-3.03;89.06
20889;BME280;10604;51.976;7.594;2023-02-28T05:49:13;102380.63;;;-3.02;89.41
20889;BME280;10604;51.976;7.594;2023-02-28T05:51:39;102380.63;;;-3.02;89.41
20889;BME280;10604;51.976;7.594;2023-02-28T05:54:05;102386.41;;;-2.90;89.61
20889;BME280;10604;51.976;7.594;2023-02-28T05:56:31;102389.66;;;-2.94;89.63
20889;BME280;10604;51.976;7.594;2023-02-28T05:58:59;102387.56;;;-3.01;89.37
20889;BME280;10604;51.976;7.594;2023-02-28T06:01:35;102389.47;;;-2.97;89.10
20889;BME280;10604;51.976;7.594;2023-02-28T06:04:01;102390.44;;;-2.95;89.13
20889;BME280;10604;51.976;7.594;2023-02-28T06:06:27;102387.69;;;-2.98;89.08
20889;BME280;10604;51.976;7.594;2023-02-28T06:08:52;102386.69;;;-2.84;89.46
20889;BME280;10604;51.976;7.594;2023-02-28T06:11:18;102391.72;;;-2.87;88.55
20889;BME280;10604;51.976;7.594;2023-02-28T06:13:45;102386.69;;;-2.84;89.05
20889;BME280;10604;51.976;7.594;2023-02-28T06:16:11;102391.75;;;-3.03;89.40
20889;BME280;10604;51.976;7.594;2023-02-28T06:18:37;102385.94;;;-2.99;89.43
20889;BME280;10604;51.976;7.594;2023-02-28T06:21:02;102384.47;;;-2.94;89.60
20889;BME280;10604;51.976;7.594;2023-02-28T06:23:28;102392.13;;;-2.95;89.82
20889;BME280;10604;51.976;7.594;2023-02-28T06:25:53;102393.19;;;-2.92;89.26
20889;BME280;10604;51.976;7.594;2023-02-28T06:28:21;102391.25;;;-2.96;88.83
20889;BME280;10604;51.976;7.594;2023-02-28T06:30:46;102389.66;;;-2.94;89.12
20889;BME280;10604;51.976;7.594;2023-02-28T06:33:12;102397.53;;;-2.91;88.93
20889;BME280;10604;51.976;7.594;2023-02-28T06:35:37;102392.22;;;-2.94;88.72
20889;BME280;10604;51.976;7.594;2023-02-28T06:38:03;102396.41;;;-2.96;88.74
20889;BME280;10604;51.976;7.594;2023-02-28T06:40:29;102394.81;;;-2.94;89.02
20889;BME280;10604;51.976;7.594;2023-02-28T06:42:56;102392.06;;;-2.97;89.03
20889;BME280;10604;51.976;7.594;2023-02-28T06:45:22;102398.50;;;-2.89;89.26
20889;BME280;10604;51.976;7.594;2023-02-28T06:47:47;102395.84;;;-2.90;88.90
20889;BME280;10604;51.976;7.594;2023-02-28T06:50:17;102401.88;;;-2.90;89.20
20889;BME280;10604;51.976;7.594;2023-02-28T06:52:44;102395.69;;;-2.93;89.12
20889;BME280;10604;51.976;7.594;2023-02-28T06:55:10;102396.72;;;-2.90;89.09
20889;BME280;10604;51.976;7.594;2023-02-28T06:57:36;102403.66;;;-2.89;89.02
20889;BME280;10604;51.976;7.594;2023-02-28T07:00:05;102403.38;;;-2.77;89.11
20889;BME280;10604;51.976;7.594;2023-02-28T07:02:32;102409.31;;;-2.80;89.01
20889;BME280;10604;51.976;7.594;2023-02-28T07:04:58;102410.31;;;-2.76;89.44
20889;BME280;10604;51.976;7.594;2023-02-28T07:07:23;102406.94;;;-2.75;88.78
20889;BME280;10604;51.976;7.594;2023-02-28T07:09:49;102418.47;;;-2.68;89.21
20889;BME280;10604;51.976;7.594;2023-02-28T07:12:14;102417.53;;;-2.70;88.83
20889;BME280;10604;51.976;7.594;2023-02-28T07:14:40;102418.31;;;-2.71;89.43
20889;BME280;10604;51.976;7.594;2023-02-28T07:17:09;102410.06;;;-2.64;89.35
20889;BME280;10604;51.976;7.594;2023-02-28T07:19:37;102418.84;;;-2.61;89.72
20889;BME280;10604;51.976;7.594;2023-02-28T07:22:03;102420.84;;;-2.55;90.25
20889;BME280;10604;51.976;7.594;2023-02-28T07:24:28;102424.44;;;-2.35;89.81
20889;BME280;10604;51.976;7.594;2023-02-28T07:26:54;102420.00;;;-2.38;89.63
20889;BME280;10604;51.976;7.594;2023-02-28T07:29:20;102417.41;;;-2.38;89.89
20889;BME280;10604;51.976;7.594;2023-02-28T07:31:45;102427.31;;;-2.29;89.90
20889;BME280;10604;51.976;7.594;2023-02-28T07:34:12;102425.53;;;-2.13;90.31
20889;BME280;10604;51.976;7.594;2023-02-28T07:36:37;102432.34;;;-2.15;89.80
20889;BME280;10604;51.976;7.594;2023-02-28T07:39:02;102431.56;;;-2.14;89.25
20889;BME280;10604;51.976;7.594;2023-02-28T07:41:30;102433.16;;;-2.16;89.09
20889;BME280;10604;51.976;7.594;2023-02-28T07:44:01;102434.50;;;-2.06;90.27
20889;BME280;10604;51.976;7.594;2023-02-28T07:46:28;102427.19;;;-1.79;90.05
20889;BME280;10604;51.976;7.594;2023-02-28T07:49:02;102424.19;;;-1.69;89.37
20889;BME280;10604;51.976;7.594;2023-02-28T07:51:30;102438.66;;;-1.55;88.47
20889;BME280;10604;51.976;7.594;2023-02-28T07:53:59;102423.31;;;-1.33;89.05
20889;BME280;10604;51.976;7.594;2023-02-28T07:56:27;102431.91;;;-1.14;88.68
20889;BME280;10604;51.976;7.594;2023-02-28T07:58:53;102428.78;;;-1.07;87.79
20889;BME280;10604;51.976;7.594;2023-02-28T08:01:21;102429.84;;;-1.02;86.80
20889;BME280;10604;51.976;7.594;2023-02-28T08:03:48;102428.22;;;-0.81;85.14
20889;BME280;10604;51.976;7.594;2023-02-28T08:06:20;102440.31;;;-0.61;83.97
20889;BME280;10604;51.976;7.594;2023-02-28T08:08:48;102429.47;;;-0.52;83.35
20889;BME280;10604;51.976;7.594;2023-02-28T08:11:16;102429.56;;;-0.28;82.56
20889;BME280;10604;51.976;7.594;2023-02-28T08:13:45;102439.44;;;-0.20;81.64
20889;BME280;10604;51.976;7.594;2023-02-28T08:16:13;102435.38;;;-0.13;81.09
20889;BME280;10604;51.976;7.594;2023-02-28T08:18:53;102438.69;;;0.04;79.97
20889;BME280;10604;51.976;7.594;2023-02-28T08:21:21;102434.50;;;0.29;79.48
20889;BME280;10604;51.976;7.594;2023-02-28T08:23:50;102433.03;;;0.36;78.75
20889;BME280;10604;51.976;7.594;2023-02-28T08:26:20;102436.06;;;0.47;78.03
20889;BME280;10604;51.976;7.594;2023-02-28T08:28:46;102429.56;;;0.58;76.56
20889;BME280;10604;51.976;7.594;2023-02-28T08:31:14;102425.53;;;0.66;77.02
20889;BME280;10604;51.976;7.594;2023-02-28T08:33:40;102428.97;;;0.65;75.73
20889;BME280;10604;51.976;7.594;2023-02-28T08:36:08;102433.69;;;0.75;75.46
20889;BME280;10604;51.976;7.594;2023-02-28T08:38:35;102428.59;;;1.02;73.59
20889;BME280;10604;51.976;7.594;2023-02-28T08:41:04;102434.06;;;1.09;73.59
20889;BME280;10604;51.976;7.594;2023-02-28T08:43:33;102442.09;;;1.15;72.76
20889;BME280;10604;51.976;7.594;2023-02-28T08:45:59;102441.41;;;1.21;72.14
20889;BME280;10604;51.976;7.594;2023-02-28T08:48:28;102439.63;;;1.44;70.90
20889;BME280;10604;51.976;7.594;2023-02-28T08:51:00;102436.84;;;1.63;70.29
20889;BME280;10604;51.976;7.594;2023-02-28T08:53:28;102437.13;;;1.72;70.47
20889;BME280;10604;51.976;7.594;2023-02-28T08:55:59;102435.28;;;1.68;68.26
20889;BME280;10604;51.976;7.594;2023-02-28T08:58:26;102444.41;;;1.82;68.14
20889;BME280;10604;51.976;7.594;2023-02-28T09:00:53;102441.06;;;2.13;67.46
20889;BME280;10604;51.976;7.594;2023-02-28T09:03:20;102435.03;;;2.13;66.72
20889;BME280;10604;51.976;7.594;2023-02-28T09:06:16;102438.56;;;2.43;64.44
20889;BME280;10604;51.976;7.594;2023-02-28T09:08:42;102428.91;;;2.39;65.79
20889;BME280;10604;51.976;7.594;2023-02-28T09:11:09;102433.28;;;2.40;65.89
20889;BME280;10604;51.976;7.594;2023-02-28T09:13:36;102438.38;;;2.37;64.27
20889;BME280;10604;51.976;7.594;2023-02-28T09:16:04;102442.28;;;2.51;63.11
20889;BME280;10604;51.976;7.594;2023-02-28T09:18:30;102430.97;;;2.51;63.49
20889;BME280;10604;51.976;7.594;2023-02-28T09:20:56;102436.59;;;2.64;62.12
20889;BME280;10604;51.976;7.594;2023-02-28T09:23:24;102442.09;;;2.73;62.36
20889;BME280;10604;51.976;7.594;2023-02-28T09:25:53;102432.28;;;2.95;58.06
20889;BME280;10604;51.976;7.594;2023-02-28T09:28:20;102431.78;;;2.77;60.76
20889;BME280;10604;51.976;7.594;2023-02-28T09:30:50;102429.91;;;2.72;60.99
20889;BME280;10604;51.976;7.594;2023-02-28T09:33:17;102421.84;;;2.95;59.77
20889;BME280;10604;51.976;7.594;2023-02-28T09:35:43;102420.78;;;3.18;57.69
20889;BME280;10604;51.976;7.594;2023-02-28T09:38:09;102422.34;;;3.44;58.32
20889;BME280;10604;51.976;7.594;2023-02-28T09:41:01;102427.19;;;3.64;57.86
20889;BME280;10604;51.976;7.594;2023-02-28T09:43:33;102424.66;;;4.01;56.27
20889;BME280;10604;51.976;7.594;2023-02-28T09:48:48;102424.00;;;4.49;50.75
20889;BME280;10604;51.976;7.594;2023-02-28T09:53:55;102432.38;;;5.62;50.62
20889;BME280;10604;51.976;7.594;2023-02-28T09:56:25;102429.69;;;6.07;48.53
20889;BME280;10604;51.976;7.594;2023-02-28T09:59:05;102428.06;;;6.77;48.31
20889;BME280;10604;51.976;7.594;2023-02-28T10:02:13;102423.13;;;6.99;45.21
20889;BME280;10604;51.976;7.594;2023-02-28T10:04:53;102420.13;;;7.47;44.57
20889;BME280;10604;51.976;7.594;2023-02-28T10:09:54;102418.53;;;7.62;41.56
20889;BME280;10604;51.976;7.594;2023-02-28T10:12:22;102420.50;;;7.87;42.29
20889;BME280;10604;51.976;7.594;2023-02-28T10:14:51;102422.34;;;7.99;41.51
20889;BME280;10604;51.976;7.594;2023-02-28T10:17:21;102424.25;;;8.16;40.97
20889;BME280;10604;51.976;7.594;2023-02-28T10:23:20;102414.00;;;8.56;39.50
20889;BME280;10604;51.976;7.594;2023-02-28T10:25:57;102418.50;;;8.78;39.81
20889;BME280;10604;51.976;7.594;2023-02-28T10:28:24;102421.28;;;9.15;39.37
20889;BME280;10604;51.976;7.594;2023-02-28T10:30:52;102424.78;;;9.20;39.08
20889;BME280;10604;51.976;7.594;2023-02-28T10:35:50;102423.00;;;9.07;37.81
20889;BME280;10604;51.976;7.594;2023-02-28T10:38:19;102421.91;;;8.60;37.76
20889;BME280;10604;51.976;7.594;2023-02-28T10:40:44;102411.66;;;7.77;41.41
20889;BME280;10604;51.976;7.594;2023-02-28T10:45:38;102427.88;;;6.61;43.25
20889;BME280;10604;51.976;7.594;2023-02-28T10:48:26;102420.13;;;6.71;42.19
20889;BME280;10604;51.976;7.594;2023-02-28T10:50:53;102423.00;;;6.89;42.40
20889;BME280;10604;51.976;7.594;2023-02-28T10:56:02;102420.06;;;7.38;42.13
20889;BME280;10604;51.976;7.594;2023-02-28T11:00:55;102422.41;;;8.06;40.24
20889;BME280;10604;51.976;7.594;2023-02-28T11:03:33;102422.66;;;8.40;39.84
20889;BME280;10604;51.976;7.594;2023-02-28T11:06:07;102414.09;;;7.55;40.08
20889;BME280;10604;51.976;7.594;2023-02-28T11:08:34;102414.94;;;7.51;41.16
20889;BME280;10604;51.976;7.594;2023-02-28T11:11:04;102416.94;;;7.82;41.50
20889;BME280;10604;51.976;7.594;2023-02-28T11:13:35;102412.41;;;7.63;41.36
20889;BME280;10604;51.976;7.594;2023-02-28T11:16:04;102418.97;;;7.20;41.22
20889;BME280;10604;51.976;7.594;2023-02-28T11:18:46;102410.53;;;6.71;43.65
20889;BME280;10604;51.976;7.594;2023-02-28T11:21:28;102409.88;;;6.25;43.05
20889;BME280;10604;51.976;7.594;2023-02-28T11:24:02;102415.53;;;6.54;42.29
20889;BME280;10604;51.976;7.594;2023-02-28T11:26:42;102406.34;;;7.70;41.46
20889;BME280;10604;51.976;7.594;2023-02-28T11:29:18;102412.53;;;7.76;41.19
20889;BME280;10604;51.976;7.594;2023-02-28T11:32:13;102405.38;;;7.57;39.09
20889;BME280;10604;51.976;7.594;2023-02-28T11:34:42;102405.94;;;7.27;39.73
20889;BME280;10604;51.976;7.594;2023-02-28T11:37:17;102406.28;;;7.64;41.43
20889;BME280;10604;51.976;7.594;2023-02-28T11:39:43;102396.22;;;8.18;39.47
20889;BME280;10604;51.976;7.594;2023-02-28T11:47:49;102411.31;;;8.44;40.43
20889;BME280;10604;51.976;7.594;2023-02-28T11:52:51;102384.06;;;8.33;39.28
20889;BME280;10604;51.976;7.594;2023-02-28T12:00:54;102383.78;;;7.93;41.30
20889;BME280;10604;51.976;7.594;2023-02-28T12:16:37;102353.59;;;8.67;40.83
20889;BME280;10604;51.976;7.594;2023-02-28T12:21:50;102350.09;;;8.74;41.50
20889;BME280;10604;51.976;7.594;2023-02-28T12:27:27;102336.78;;;8.39;42.39
20889;BME280;10604;51.976;7.594;2023-02-28T12:32:43;102345.63;;;8.50;42.51
20889;BME280;10604;51.976;7.594;2023-02-28T12:40:03;102338.44;;;8.27;42.67
20889;BME280;10604;51.976;7.594;2023-02-28T12:43:04;102330.94;;;7.52;43.38
20889;BME280;10604;51.976;7.594;2023-02-28T12:48:21;102321.38;;;7.59;44.49
20889;BME280;10604;51.976;7.594;2023-02-28T12:50:50;102329.25;;;7.59;45.25
20889;BME280;10604;51.976;7.594;2023-02-28T12:58:39;102312.75;;;6.80;45.51
20889;BME280;10604;51.976;7.594;2023-02-28T13:09:52;102297.53;;;7.31;44.32
20889;BME280;10604;51.976;7.594;2023-02-28T13:12:19;102294.06;;;7.35;45.28
20889;BME280;10604;51.976;7.594;2023-02-28T13:14:45;102288.13;;;7.59;44.25
20889;BME280;10604;51.976;7.594;2023-02-28T13:17:17;102297.41;;;7.19;45.19
20889;BME280;10604;51.976;7.594;2023-02-28T13:24:50;102279.50;;;7.80;44.21
20889;BME280;10604;51.976;7.594;2023-02-28T13:27:37;102282.28;;;8.07;42.64
20889;BME280;10604;51.976;7.594;2023-02-28T13:36:31;102278.75;;;8.02;43.14
20889;BME280;10604;51.976;7.594;2023-02-28T13:39:02;102278.88;;;8.26;42.47
20889;BME280;10604;51.976;7.594;2023-02-28T13:44:07;102278.97;;;8.42;42.24
20889;BME280;10604;51.976;7.594;2023-02-28T13:57:42;102277.53;;;7.50;43.31
20889;BME280;10604;51.976;7.594;2023-02-28T14:05:45;102265.91;;;7.16;44.41
20889;BME280;10604;51.976;7.594;2023-02-28T14:08:14;102271.16;;;7.19;44.77
20889;BME280;10604;51.976;7.594;2023-02-28T14:11:03;102269.44;;;7.21;45.98
20889;BME280;10604;51.976;7.594;2023-02-28T14:16:10;102274.50;;;7.00;46.39
20889;BME280;10604;51.976;7.594;2023-02-28T14:19:00;102265.84;;;7.10;45.53
20889;BME280;10604;51.976;7.594;2023-02-28T14:21:35;102260.63;;;7.13;45.16
20889;BME280;10604;51.976;7.594;2023-02-28T14:27:24;102262.06;;;6.81;45.12
20889;BME280;10604;51.976;7.594;2023-02-28T14:32:50;102265.50;;;6.74;46.58
20889;BME280;10604;51.976;7.594;2023-02-28T14:35:29;102260.94;;;6.57;47.45
20889;BME280;10604;51.976;7.594;2023-02-28T14:38:04;102251.31;;;6.56;47.10
20889;BME280;10604;51.976;7.594;2023-02-28T14:40:35;102253.13;;;6.60;47.89
20889;BME280;10604;51.976;7.594;2023-02-28T14:43:05;102247.91;;;6.63;47.07
20889;BME280;10604;51.976;7.594;2023-02-28T14:45:32;102253.13;;;6.60;47.13
20889;BME280;10604;51.976;7.594;2023-02-28T14:47:59;102246.25;;;6.72;46.77
20889;BME280;10604;51.976;7.594;2023-02-28T14:50:49;102245.16;;;6.51;47.69
20889;BME280;10604;51.976;7.594;2023-02-28T14:53:18;102242.56;;;6.54;47.94
20889;BME280;10604;51.976;7.594;2023-02-28T14:55:47;102245.03;;;6.39;47.61
20889;BME280;10604;51.976;7.594;2023-02-28T15:00:48;102243.34;;;6.46;47.94
20889;BME280;10604;51.976;7.594;2023-02-28T15:05:58;102233.53;;;6.28;47.85
20889;BME280;10604;51.976;7.594;2023-02-28T15:08:25;102244.13;;;6.37;47.74
20889;BME280;10604;51.976;7.594;2023-02-28T15:10:57;102242.28;;;6.30;48.63
20889;BME280;10604;51.976;7.594;2023-02-28T15:13:30;102241.44;;;6.33;49.46
20889;BME280;10604;51.976;7.594;2023-02-28T15:16:01;102246.56;;;6.22;49.63
20889;BME280;10604;51.976;7.594;2023-02-28T15:21:14;102235.41;;;6.41;48.97
20889;BME280;10604;51.976;7.594;2023-02-28T15:23:43;102235.53;;;6.50;49.72
20889;BME280;10604;51.976;7.594;2023-02-28T15:26:19;102245.78;;;6.29;49.48
20889;BME280;10604;51.976;7.594;2023-02-28T15:28:46;102238.69;;;6.22;49.17
20889;BME280;10604;51.976;7.594;2023-02-28T15:31:43;102251.75;;;6.19;48.34
20889;BME280;10604;51.976;7.594;2023-02-28T15:34:21;102250.97;;;6.27;48.53
20889;BME280;10604;51.976;7.594;2023-02-28T15:36:47;102252.44;;;6.06;49.44
20889;BME280;10604;51.976;7.594;2023-02-28T15:39:28;102246.44;;;6.13;49.01